Potash Bay, Vermont
Current Conditions -  °F | °C
As of 12:15 PM on Wednesday 26 Nov 2014 (Local Time) from K6B0 Reporting Station
Overcast Overcast  
Wind Chill: 30°   Ceiling: 4700
Heat Index: 36°   Visibility: 10mi
Dew Point: 25°   Wind: 7mph
Humidity: 65%   Direction: 360°N
Pressure: 30.15"   Gusts: NA
Location:  44.0804°N, 73.3324°W
Report Text: K6B0 261715Z AUTO 36006KT 10SM SCT034 SCT041 OVC047 02/M04 A3015 RMK AO2 T00201039
Loading
Personal Weather Stations






























Interactive Weather Map New forecast layout! Learn more

10-Day Weather Forecast

Advertisements
Track Severe Weather on mobile